YMIA

Details ICAO YMIA (MQL)
Name Mildura
Region Australia
Timezone Australia/Melbourne (UTC+11.0)
Plans Departing 83
Arriving 137
Stats Elevation 166 ft / 51 m (AMSL)
Location -34.229600° 142.086000°
Runways 2
Magnetic Variation 9.228° E
Sunrise 2020-10-30 19:32:54 UTC / 2020-10-31 06:32:54 Local
Sunset 2020-10-31 09:00:06 UTC / 2020-10-31 20:00:06 Local
Advertisement - Login to hide

Runways

ID Width Length Bearing (true/mag) Surface Threshold Overrun Markings Lighting
09 148 ft / 45 m 5,992 ft / 1,826 m 101.67° / 92.45° ASPHALT 0 ft / 0 m 0 ft / 0 m PREC-APP EDGE THRESHOLD
18 98 ft / 30 m 3,743 ft / 1,141 m 185.06° / 175.84° ASPHALT 0 ft / 0 m 0 ft / 0 m PREC-APP EDGE THRESHOLD
27 148 ft / 45 m 5,992 ft / 1,826 m 281.66° / 272.43° ASPHALT 0 ft / 0 m 0 ft / 0 m PREC-APP EDGE THRESHOLD
36 98 ft / 30 m 3,743 ft / 1,141 m 5.06° / 355.84° ASPHALT 0 ft / 0 m 0 ft / 0 m PREC-APP EDGE THRESHOLD

Map

Weather


0- 5 10 15 20 25 30 35+ Temperature / °C

Clouds and Precipitation
Forecast for 2020-10-31 00:00 UTC. Updated 17 minutes ago

Ground ~20,000 ft ~40,000 ft Winds

METAR

YMIA 302100Z AUTO 18009KT 9999 // OVC027 14/11 Q1013

TAF

Not found

Frequencies

Unicom 113.70 MHz Mildura Unicom
Warning: Do not use this data for real-world aviation or navigation. No guarantee of current accuracy is given.